sensor_id;sensor_type;location;lat;lon;timestamp;P1;durP1;ratioP1;P2;durP2;ratioP2
78122;SDS011;67376;44.802;10.332;2023-04-15T00:01:53;2.25;;;1.02;;
78122;SDS011;67376;44.802;10.332;2023-04-15T00:04:19;2.80;;;1.25;;
78122;SDS011;67376;44.802;10.332;2023-04-15T00:06:50;1.55;;;1.08;;
78122;SDS011;67376;44.802;10.332;2023-04-15T00:09:17;2.47;;;1.00;;
78122;SDS011;67376;44.802;10.332;2023-04-15T00:11:43;3.25;;;1.50;;
78122;SDS011;67376;44.802;10.332;2023-04-15T00:14:10;2.15;;;0.95;;
78122;SDS011;67376;44.802;10.332;2023-04-15T00:16:36;2.92;;;1.05;;
78122;SDS011;67376;44.802;10.332;2023-04-15T00:19:02;2.13;;;0.88;;
78122;SDS011;67376;44.802;10.332;2023-04-15T00:21:27;3.13;;;1.00;;
78122;SDS011;67376;44.802;10.332;2023-04-15T00:23:53;1.67;;;1.10;;
78122;SDS011;67376;44.802;10.332;2023-04-15T00:26:18;1.42;;;0.88;;
78122;SDS011;67376;44.802;10.332;2023-04-15T00:28:45;1.17;;;1.00;;
78122;SDS011;67376;44.802;10.332;2023-04-15T00:31:10;2.85;;;1.20;;
78122;SDS011;67376;44.802;10.332;2023-04-15T00:33:36;1.27;;;1.00;;
78122;SDS011;67376;44.802;10.332;2023-04-15T00:36:01;2.15;;;1.17;;
78122;SDS011;67376;44.802;10.332;2023-04-15T00:38:27;1.95;;;0.90;;
78122;SDS011;67376;44.802;10.332;2023-04-15T00:40:53;2.17;;;1.15;;
78122;SDS011;67376;44.802;10.332;2023-04-15T00:43:20;1.63;;;0.90;;
78122;SDS011;67376;44.802;10.332;2023-04-15T00:45:46;1.42;;;0.95;;
78122;SDS011;67376;44.802;10.332;2023-04-15T00:48:11;0.75;;;0.75;;
78122;SDS011;67376;44.802;10.332;2023-04-15T00:50:37;1.52;;;0.80;;
78122;SDS011;67376;44.802;10.332;2023-04-15T00:53:03;2.85;;;1.10;;
78122;SDS011;67376;44.802;10.332;2023-04-15T00:55:28;3.05;;;1.45;;
78122;SDS011;67376;44.802;10.332;2023-04-15T00:57:55;2.70;;;1.20;;
78122;SDS011;67376;44.802;10.332;2023-04-15T01:00:21;2.05;;;1.17;;
78122;SDS011;67376;44.802;10.332;2023-04-15T01:02:47;2.83;;;1.30;;
78122;SDS011;67376;44.802;10.332;2023-04-15T01:05:13;1.98;;;1.13;;
78122;SDS011;67376;44.802;10.332;2023-04-15T01:07:41;2.75;;;1.38;;
78122;SDS011;67376;44.802;10.332;2023-04-15T01:10:06;1.85;;;1.20;;
78122;SDS011;67376;44.802;10.332;2023-04-15T01:12:32;1.50;;;1.20;;
78122;SDS011;67376;44.802;10.332;2023-04-15T01:14:58;1.67;;;1.00;;
78122;SDS011;67376;44.802;10.332;2023-04-15T01:17:24;1.52;;;0.90;;
78122;SDS011;67376;44.802;10.332;2023-04-15T01:19:50;4.15;;;1.38;;
78122;SDS011;67376;44.802;10.332;2023-04-15T01:22:16;3.15;;;1.20;;
78122;SDS011;67376;44.802;10.332;2023-04-15T01:24:43;2.85;;;1.25;;
78122;SDS011;67376;44.802;10.332;2023-04-15T01:27:18;1.90;;;0.90;;
78122;SDS011;67376;44.802;10.332;2023-04-15T01:29:44;3.20;;;1.30;;
78122;SDS011;67376;44.802;10.332;2023-04-15T01:32:10;3.08;;;0.95;;
78122;SDS011;67376;44.802;10.332;2023-04-15T01:34:36;2.17;;;1.05;;
78122;SDS011;67376;44.802;10.332;2023-04-15T01:37:01;1.20;;;0.95;;
78122;SDS011;67376;44.802;10.332;2023-04-15T01:39:26;1.23;;;0.85;;
78122;SDS011;67376;44.802;10.332;2023-04-15T01:41:52;2.28;;;1.40;;
78122;SDS011;67376;44.802;10.332;2023-04-15T01:44:17;2.50;;;1.15;;
78122;SDS011;67376;44.802;10.332;2023-04-15T01:46:43;1.50;;;1.00;;
78122;SDS011;67376;44.802;10.332;2023-04-15T01:49:08;3.40;;;1.08;;
78122;SDS011;67376;44.802;10.332;2023-04-15T01:51:33;3.05;;;1.17;;
78122;SDS011;67376;44.802;10.332;2023-04-15T01:53:59;3.63;;;1.27;;
78122;SDS011;67376;44.802;10.332;2023-04-15T01:56:24;2.35;;;1.13;;
78122;SDS011;67376;44.802;10.332;2023-04-15T01:58:50;2.22;;;1.50;;
78122;SDS011;67376;44.802;10.332;2023-04-15T02:01:16;2.85;;;1.27;;
78122;SDS011;67376;44.802;10.332;2023-04-15T02:03:43;1.02;;;0.88;;
78122;SDS011;67376;44.802;10.332;2023-04-15T02:06:09;3.53;;;1.40;;
78122;SDS011;67376;44.802;10.332;2023-04-15T02:08:35;3.45;;;1.15;;
78122;SDS011;67376;44.802;10.332;2023-04-15T02:11:00;3.10;;;1.27;;
78122;SDS011;67376;44.802;10.332;2023-04-15T02:13:26;3.10;;;1.20;;
78122;SDS011;67376;44.802;10.332;2023-04-15T02:15:51;3.13;;;1.20;;
78122;SDS011;67376;44.802;10.332;2023-04-15T02:18:17;4.70;;;0.90;;
78122;SDS011;67376;44.802;10.332;2023-04-15T02:20:42;3.40;;;1.15;;
78122;SDS011;67376;44.802;10.332;2023-04-15T02:23:08;3.08;;;1.10;;
78122;SDS011;67376;44.802;10.332;2023-04-15T02:25:33;3.15;;;1.40;;
78122;SDS011;67376;44.802;10.332;2023-04-15T02:27:59;3.38;;;1.65;;
78122;SDS011;67376;44.802;10.332;2023-04-15T02:30:24;2.33;;;1.42;;
78122;SDS011;67376;44.802;10.332;2023-04-15T02:32:50;1.27;;;0.80;;
78122;SDS011;67376;44.802;10.332;2023-04-15T02:35:15;2.42;;;1.35;;
78122;SDS011;67376;44.802;10.332;2023-04-15T02:37:43;2.78;;;1.10;;
78122;SDS011;67376;44.802;10.332;2023-04-15T02:40:10;2.50;;;1.17;;
78122;SDS011;67376;44.802;10.332;2023-04-15T02:42:37;2.55;;;1.10;;
78122;SDS011;67376;44.802;10.332;2023-04-15T02:45:05;1.70;;;1.02;;
78122;SDS011;67376;44.802;10.332;2023-04-15T02:47:32;3.65;;;1.40;;
78122;SDS011;67376;44.802;10.332;2023-04-15T02:49:58;3.42;;;1.10;;
78122;SDS011;67376;44.802;10.332;2023-04-15T02:52:24;1.85;;;1.23;;
78122;SDS011;67376;44.802;10.332;2023-04-15T02:54:50;4.70;;;1.23;;
78122;SDS011;67376;44.802;10.332;2023-04-15T02:57:16;1.33;;;1.00;;
78122;SDS011;67376;44.802;10.332;2023-04-15T02:59:41;2.65;;;1.13;;
78122;SDS011;67376;44.802;10.332;2023-04-15T03:02:06;4.68;;;1.52;;
78122;SDS011;67376;44.802;10.332;2023-04-15T03:04:32;1.30;;;0.90;;
78122;SDS011;67376;44.802;10.332;2023-04-15T03:06:58;1.90;;;1.08;;
78122;SDS011;67376;44.802;10.332;2023-04-15T03:09:24;2.47;;;1.00;;
78122;SDS011;67376;44.802;10.332;2023-04-15T03:11:50;2.90;;;1.88;;
78122;SDS011;67376;44.802;10.332;2023-04-15T03:14:17;3.00;;;1.40;;
78122;SDS011;67376;44.802;10.332;2023-04-15T03:16:42;1.70;;;1.00;;
78122;SDS011;67376;44.802;10.332;2023-04-15T03:19:08;2.80;;;0.95;;
78122;SDS011;67376;44.802;10.332;2023-04-15T03:21:33;1.67;;;0.75;;
78122;SDS011;67376;44.802;10.332;2023-04-15T03:23:58;3.13;;;1.40;;
78122;SDS011;67376;44.802;10.332;2023-04-15T03:28:51;2.17;;;1.20;;
78122;SDS011;67376;44.802;10.332;2023-04-15T03:31:16;1.70;;;1.10;;
78122;SDS011;67376;44.802;10.332;2023-04-15T03:33:41;1.88;;;1.10;;
78122;SDS011;67376;44.802;10.332;2023-04-15T03:36:07;1.95;;;1.05;;
78122;SDS011;67376;44.802;10.332;2023-04-15T03:38:32;1.27;;;1.10;;
78122;SDS011;67376;44.802;10.332;2023-04-15T03:40:57;2.22;;;0.98;;
78122;SDS011;67376;44.802;10.332;2023-04-15T03:43:23;1.60;;;1.17;;
78122;SDS011;67376;44.802;10.332;2023-04-15T03:45:48;1.40;;;0.98;;
78122;SDS011;67376;44.802;10.332;2023-04-15T03:48:13;1.95;;;1.20;;
78122;SDS011;67376;44.802;10.332;2023-04-15T03:50:39;1.95;;;1.20;;
78122;SDS011;67376;44.802;10.332;2023-04-15T03:53:04;4.57;;;1.55;;
78122;SDS011;67376;44.802;10.332;2023-04-15T03:55:30;1.13;;;0.98;;
78122;SDS011;67376;44.802;10.332;2023-04-15T03:57:55;0.93;;;0.88;;
78122;SDS011;67376;44.802;10.332;2023-04-15T04:00:21;3.63;;;1.17;;
78122;SDS011;67376;44.802;10.332;2023-04-15T04:02:46;1.90;;;1.20;;
78122;SDS011;67376;44.802;10.332;2023-04-15T04:05:11;1.80;;;1.17;;
78122;SDS011;67376;44.802;10.332;2023-04-15T04:07:37;0.93;;;0.90;;
78122;SDS011;67376;44.802;10.332;2023-04-15T04:10:03;3.60;;;1.52;;
78122;SDS011;67376;44.802;10.332;2023-04-15T04:12:28;1.40;;;0.88;;
78122;SDS011;67376;44.802;10.332;2023-04-15T04:14:54;1.42;;;1.17;;
78122;SDS011;67376;44.802;10.332;2023-04-15T04:17:19;1.85;;;1.08;;
78122;SDS011;67376;44.802;10.332;2023-04-15T04:19:45;1.92;;;1.17;;
78122;SDS011;67376;44.802;10.332;2023-04-15T04:22:10;4.28;;;1.30;;
78122;SDS011;67376;44.802;10.332;2023-04-15T04:24:36;2.20;;;0.98;;
78122;SDS011;67376;44.802;10.332;2023-04-15T04:27:01;2.30;;;1.08;;
78122;SDS011;67376;44.802;10.332;2023-04-15T04:29:27;0.95;;;0.90;;
78122;SDS011;67376;44.802;10.332;2023-04-15T04:31:52;1.05;;;1.00;;
78122;SDS011;67376;44.802;10.332;2023-04-15T04:34:17;2.63;;;1.08;;
78122;SDS011;67376;44.802;10.332;2023-04-15T04:36:43;1.55;;;1.10;;
78122;SDS011;67376;44.802;10.332;2023-04-15T04:39:08;2.20;;;0.98;;
78122;SDS011;67376;44.802;10.332;2023-04-15T04:41:33;0.70;;;0.70;;
78122;SDS011;67376;44.802;10.332;2023-04-15T04:43:59;1.63;;;0.90;;
78122;SDS011;67376;44.802;10.332;2023-04-15T04:46:24;0.82;;;0.80;;
78122;SDS011;67376;44.802;10.332;2023-04-15T04:48:50;2.83;;;2.50;;
78122;SDS011;67376;44.802;10.332;2023-04-15T04:51:15;2.00;;;1.10;;
78122;SDS011;67376;44.802;10.332;2023-04-15T04:53:40;3.42;;;1.00;;
78122;SDS011;67376;44.802;10.332;2023-04-15T04:56:07;1.27;;;0.95;;
78122;SDS011;67376;44.802;10.332;2023-04-15T04:58:32;1.20;;;0.98;;
78122;SDS011;67376;44.802;10.332;2023-04-15T05:00:58;1.88;;;1.20;;
78122;SDS011;67376;44.802;10.332;2023-04-15T05:03:23;4.63;;;1.45;;
78122;SDS011;67376;44.802;10.332;2023-04-15T05:05:48;1.48;;;0.98;;
78122;SDS011;67376;44.802;10.332;2023-04-15T05:08:14;3.60;;;1.33;;
78122;SDS011;67376;44.802;10.332;2023-04-15T05:10:40;2.00;;;1.20;;
78122;SDS011;67376;44.802;10.332;2023-04-15T05:13:06;1.38;;;1.10;;
78122;SDS011;67376;44.802;10.332;2023-04-15T05:15:31;2.92;;;1.23;;
78122;SDS011;67376;44.802;10.332;2023-04-15T05:17:58;1.92;;;1.50;;
78122;SDS011;67376;44.802;10.332;2023-04-15T05:20:24;2.17;;;1.15;;
78122;SDS011;67376;44.802;10.332;2023-04-15T05:22:50;2.50;;;1.20;;
78122;SDS011;67376;44.802;10.332;2023-04-15T05:25:15;4.97;;;1.83;;
78122;SDS011;67376;44.802;10.332;2023-04-15T05:27:41;1.17;;;0.90;;
78122;SDS011;67376;44.802;10.332;2023-04-15T05:30:06;1.92;;;1.10;;
78122;SDS011;67376;44.802;10.332;2023-04-15T05:32:33;2.05;;;1.30;;
78122;SDS011;67376;44.802;10.332;2023-04-15T05:34:58;6.88;;;2.75;;
78122;SDS011;67376;44.802;10.332;2023-04-15T05:37:23;2.70;;;1.20;;
78122;SDS011;67376;44.802;10.332;2023-04-15T05:39:49;3.95;;;1.40;;
78122;SDS011;67376;44.802;10.332;2023-04-15T05:42:14;2.00;;;1.20;;
78122;SDS011;67376;44.802;10.332;2023-04-15T05:44:40;2.33;;;1.20;;
78122;SDS011;67376;44.802;10.332;2023-04-15T05:47:06;2.63;;;1.30;;
78122;SDS011;67376;44.802;10.332;2023-04-15T05:49:32;2.50;;;1.67;;
78122;SDS011;67376;44.802;10.332;2023-04-15T05:51:58;3.15;;;1.63;;
78122;SDS011;67376;44.802;10.332;2023-04-15T05:54:23;2.45;;;1.35;;
78122;SDS011;67376;44.802;10.332;2023-04-15T05:56:49;2.03;;;1.10;;
78122;SDS011;67376;44.802;10.332;2023-04-15T05:59:14;4.45;;;1.40;;
78122;SDS011;67376;44.802;10.332;2023-04-15T06:01:39;3.25;;;1.75;;
78122;SDS011;67376;44.802;10.332;2023-04-15T06:04:05;3.15;;;1.58;;
78122;SDS011;67376;44.802;10.332;2023-04-15T06:06:30;5.22;;;2.67;;
78122;SDS011;67376;44.802;10.332;2023-04-15T06:08:56;2.47;;;1.27;;
78122;SDS011;67376;44.802;10.332;2023-04-15T06:11:22;1.95;;;1.25;;
78122;SDS011;67376;44.802;10.332;2023-04-15T06:13:47;3.42;;;1.20;;
78122;SDS011;67376;44.802;10.332;2023-04-15T06:16:13;2.63;;;1.10;;
78122;SDS011;67376;44.802;10.332;2023-04-15T06:18:38;3.17;;;1.67;;
78122;SDS011;67376;44.802;10.332;2023-04-15T06:21:04;2.58;;;1.52;;
78122;SDS011;67376;44.802;10.332;2023-04-15T06:23:29;2.55;;;1.73;;
78122;SDS011;67376;44.802;10.332;2023-04-15T06:25:55;2.15;;;1.50;;
78122;SDS011;67376;44.802;10.332;2023-04-15T06:28:21;2.08;;;1.38;;
78122;SDS011;67376;44.802;10.332;2023-04-15T06:30:46;7.28;;;1.73;;
78122;SDS011;67376;44.802;10.332;2023-04-15T06:33:11;3.95;;;1.48;;
78122;SDS011;67376;44.802;10.332;2023-04-15T06:35:37;3.08;;;1.73;;
78122;SDS011;67376;44.802;10.332;2023-04-15T06:38:03;2.90;;;1.38;;
78122;SDS011;67376;44.802;10.332;2023-04-15T06:40:28;3.67;;;1.73;;
78122;SDS011;67376;44.802;10.332;2023-04-15T06:42:53;3.00;;;1.35;;
78122;SDS011;67376;44.802;10.332;2023-04-15T06:45:19;3.80;;;1.67;;
78122;SDS011;67376;44.802;10.332;2023-04-15T06:47:44;2.45;;;1.38;;
78122;SDS011;67376;44.802;10.332;2023-04-15T06:50:10;6.88;;;1.52;;
78122;SDS011;67376;44.802;10.332;2023-04-15T06:52:36;5.15;;;1.90;;
78122;SDS011;67376;44.802;10.332;2023-04-15T06:55:02;5.85;;;2.30;;
78122;SDS011;67376;44.802;10.332;2023-04-15T06:57:27;4.95;;;1.77;;
78122;SDS011;67376;44.802;10.332;2023-04-15T06:59:53;3.97;;;1.55;;
78122;SDS011;67376;44.802;10.332;2023-04-15T07:02:18;2.67;;;1.55;;
78122;SDS011;67376;44.802;10.332;2023-04-15T07:04:44;4.45;;;1.85;;
78122;SDS011;67376;44.802;10.332;2023-04-15T07:07:10;3.22;;;1.45;;
78122;SDS011;67376;44.802;10.332;2023-04-15T07:09:36;3.85;;;1.40;;
78122;SDS011;67376;44.802;10.332;2023-04-15T07:12:01;4.30;;;1.58;;
78122;SDS011;67376;44.802;10.332;2023-04-15T07:14:26;2.10;;;1.48;;
78122;SDS011;67376;44.802;10.332;2023-04-15T07:16:53;5.57;;;1.70;;
78122;SDS011;67376;44.802;10.332;2023-04-15T07:19:18;5.55;;;1.60;;
78122;SDS011;67376;44.802;10.332;2023-04-15T07:21:44;4.80;;;1.77;;
78122;SDS011;67376;44.802;10.332;2023-04-15T07:24:09;7.82;;;1.60;;
78122;SDS011;67376;44.802;10.332;2023-04-15T07:26:35;3.92;;;1.73;;
78122;SDS011;67376;44.802;10.332;2023-04-15T07:29:00;4.35;;;1.55;;
78122;SDS011;67376;44.802;10.332;2023-04-15T07:31:25;3.53;;;2.00;;
78122;SDS011;67376;44.802;10.332;2023-04-15T07:33:51;5.72;;;1.83;;
78122;SDS011;67376;44.802;10.332;2023-04-15T07:36:17;4.85;;;1.73;;
78122;SDS011;67376;44.802;10.332;2023-04-15T07:38:42;3.63;;;1.58;;
78122;SDS011;67376;44.802;10.332;2023-04-15T07:41:08;4.72;;;2.00;;
78122;SDS011;67376;44.802;10.332;2023-04-15T07:43:34;3.65;;;2.20;;
78122;SDS011;67376;44.802;10.332;2023-04-15T07:45:59;10.02;;;2.40;;
78122;SDS011;67376;44.802;10.332;2023-04-15T07:48:25;9.70;;;2.75;;
78122;SDS011;67376;44.802;10.332;2023-04-15T07:50:51;10.35;;;2.80;;
78122;SDS011;67376;44.802;10.332;2023-04-15T07:53:16;8.00;;;2.70;;
78122;SDS011;67376;44.802;10.332;2023-04-15T07:55:42;10.30;;;3.15;;
78122;SDS011;67376;44.802;10.332;2023-04-15T07:58:07;13.80;;;3.10;;
78122;SDS011;67376;44.802;10.332;2023-04-15T08:00:33;10.25;;;2.60;;
78122;SDS011;67376;44.802;10.332;2023-04-15T08:02:58;6.65;;;2.70;;
78122;SDS011;67376;44.802;10.332;2023-04-15T08:05:23;7.30;;;3.10;;
78122;SDS011;67376;44.802;10.332;2023-04-15T08:07:49;9.65;;;3.20;;
78122;SDS011;67376;44.802;10.332;2023-04-15T08:10:15;4.72;;;2.83;;
78122;SDS011;67376;44.802;10.332;2023-04-15T08:12:41;10.60;;;2.92;;
78122;SDS011;67376;44.802;10.332;2023-04-15T08:15:06;7.57;;;2.63;;
78122;SDS011;67376;44.802;10.332;2023-04-15T08:17:33;5.35;;;2.60;;
78122;SDS011;67376;44.802;10.332;2023-04-15T08:19:58;8.80;;;2.92;;
78122;SDS011;67376;44.802;10.332;2023-04-15T08:22:24;9.27;;;3.03;;
78122;SDS011;67376;44.802;10.332;2023-04-15T08:24:49;10.63;;;2.25;;
78122;SDS011;67376;44.802;10.332;2023-04-15T08:27:15;3.53;;;2.28;;
78122;SDS011;67376;44.802;10.332;2023-04-15T08:29:41;9.15;;;2.40;;
78122;SDS011;67376;44.802;10.332;2023-04-15T08:32:06;7.07;;;3.50;;
78122;SDS011;67376;44.802;10.332;2023-04-15T08:34:33;6.47;;;2.08;;
78122;SDS011;67376;44.802;10.332;2023-04-15T08:36:59;6.95;;;2.10;;
78122;SDS011;67376;44.802;10.332;2023-04-15T08:39:24;5.03;;;2.05;;
78122;SDS011;67376;44.802;10.332;2023-04-15T08:41:53;6.43;;;2.40;;
78122;SDS011;67376;44.802;10.332;2023-04-15T08:44:24;5.38;;;2.42;;
78122;SDS011;67376;44.802;10.332;2023-04-15T08:46:52;9.70;;;2.22;;
78122;SDS011;67376;44.802;10.332;2023-04-15T08:49:18;6.45;;;2.42;;
78122;SDS011;67376;44.802;10.332;2023-04-15T08:51:46;6.60;;;1.95;;
78122;SDS011;67376;44.802;10.332;2023-04-15T08:54:13;6.20;;;2.30;;
78122;SDS011;67376;44.802;10.332;2023-04-15T08:56:39;4.13;;;2.22;;
78122;SDS011;67376;44.802;10.332;2023-04-15T08:59:04;7.32;;;2.53;;
78122;SDS011;67376;44.802;10.332;2023-04-15T09:01:31;6.10;;;2.17;;
78122;SDS011;67376;44.802;10.332;2023-04-15T09:03:57;3.33;;;2.00;;
78122;SDS011;67376;44.802;10.332;2023-04-15T09:06:23;7.72;;;2.22;;
78122;SDS011;67376;44.802;10.332;2023-04-15T09:08:49;7.18;;;2.42;;
78122;SDS011;67376;44.802;10.332;2023-04-15T09:11:16;6.15;;;2.42;;
78122;SDS011;67376;44.802;10.332;2023-04-15T09:13:42;7.70;;;2.60;;
78122;SDS011;67376;44.802;10.332;2023-04-15T09:16:07;4.20;;;2.33;;
78122;SDS011;67376;44.802;10.332;2023-04-15T09:18:33;11.60;;;3.75;;
78122;SDS011;67376;44.802;10.332;2023-04-15T09:21:07;4.70;;;2.42;;
78122;SDS011;67376;44.802;10.332;2023-04-15T09:23:35;5.45;;;2.30;;
78122;SDS011;67376;44.802;10.332;2023-04-15T09:26:01;5.32;;;2.58;;
78122;SDS011;67376;44.802;10.332;2023-04-15T09:28:28;4.82;;;2.13;;
78122;SDS011;67376;44.802;10.332;2023-04-15T09:30:57;4.10;;;2.40;;
78122;SDS011;67376;44.802;10.332;2023-04-15T09:33:24;5.65;;;2.17;;
78122;SDS011;67376;44.802;10.332;2023-04-15T09:35:58;6.88;;;1.90;;
78122;SDS011;67376;44.802;10.332;2023-04-15T09:38:29;7.18;;;2.00;;
78122;SDS011;67376;44.802;10.332;2023-04-15T09:40:55;4.78;;;1.75;;
78122;SDS011;67376;44.802;10.332;2023-04-15T09:43:22;4.25;;;2.05;;
78122;SDS011;67376;44.802;10.332;2023-04-15T09:45:51;3.35;;;1.98;;
78122;SDS011;67376;44.802;10.332;2023-04-15T09:48:21;6.88;;;3.08;;
78122;SDS011;67376;44.802;10.332;2023-04-15T09:50:51;5.70;;;1.80;;
78122;SDS011;67376;44.802;10.332;2023-04-15T09:53:22;3.00;;;1.73;;
78122;SDS011;67376;44.802;10.332;2023-04-15T09:55:52;2.53;;;1.77;;
78122;SDS011;67376;44.802;10.332;2023-04-15T09:58:21;3.25;;;1.80;;
78122;SDS011;67376;44.802;10.332;2023-04-15T10:00:49;5.90;;;1.48;;
78122;SDS011;67376;44.802;10.332;2023-04-15T10:05:58;3.28;;;1.70;;
78122;SDS011;67376;44.802;10.332;2023-04-15T10:08:28;2.92;;;1.60;;
78122;SDS011;67376;44.802;10.332;2023-04-15T10:10:55;3.80;;;1.70;;
78122;SDS011;67376;44.802;10.332;2023-04-15T10:13:22;3.13;;;1.77;;
78122;SDS011;67376;44.802;10.332;2023-04-15T10:15:50;2.80;;;1.50;;
78122;SDS011;67376;44.802;10.332;2023-04-15T10:18:24;6.95;;;1.88;;
78122;SDS011;67376;44.802;10.332;2023-04-15T10:20:51;3.33;;;1.50;;
78122;SDS011;67376;44.802;10.332;2023-04-15T10:23:18;4.45;;;1.55;;
78122;SDS011;67376;44.802;10.332;2023-04-15T10:25:51;3.75;;;1.90;;
78122;SDS011;67376;44.802;10.332;2023-04-15T10:28:18;4.57;;;1.73;;
78122;SDS011;67376;44.802;10.332;2023-04-15T10:30:44;3.85;;;2.03;;
78122;SDS011;67376;44.802;10.332;2023-04-15T10:33:11;2.08;;;1.50;;
78122;SDS011;67376;44.802;10.332;2023-04-15T10:35:38;3.15;;;1.55;;
78122;SDS011;67376;44.802;10.332;2023-04-15T10:49:11;3.58;;;1.70;;
78122;SDS011;67376;44.802;10.332;2023-04-15T10:51:39;3.85;;;1.73;;
78122;SDS011;67376;44.802;10.332;2023-04-15T10:54:11;4.55;;;1.80;;
78122;SDS011;67376;44.802;10.332;2023-04-15T10:59:29;7.43;;;2.40;;
78122;SDS011;67376;44.802;10.332;2023-04-15T11:01:56;9.32;;;2.38;;
78122;SDS011;67376;44.802;10.332;2023-04-15T11:12:37;5.57;;;1.95;;
78122;SDS011;67376;44.802;10.332;2023-04-15T11:20:23;4.10;;;1.95;;
78122;SDS011;67376;44.802;10.332;2023-04-15T11:22:49;5.97;;;2.00;;
78122;SDS011;67376;44.802;10.332;2023-04-15T11:25:26;4.80;;;2.05;;
78122;SDS011;67376;44.802;10.332;2023-04-15T11:27:53;4.95;;;2.10;;
78122;SDS011;67376;44.802;10.332;2023-04-15T11:30:20;8.75;;;1.95;;
78122;SDS011;67376;44.802;10.332;2023-04-15T11:32:47;5.18;;;1.90;;
78122;SDS011;67376;44.802;10.332;2023-04-15T11:35:13;3.65;;;1.95;;
78122;SDS011;67376;44.802;10.332;2023-04-15T11:37:40;5.78;;;1.90;;
78122;SDS011;67376;44.802;10.332;2023-04-15T11:40:06;4.45;;;2.22;;
78122;SDS011;67376;44.802;10.332;2023-04-15T11:42:32;5.60;;;1.70;;
78122;SDS011;67376;44.802;10.332;2023-04-15T11:45:11;6.53;;;2.20;;
78122;SDS011;67376;44.802;10.332;2023-04-15T11:47:38;7.20;;;1.88;;
78122;SDS011;67376;44.802;10.332;2023-04-15T11:52:40;6.85;;;2.40;;
78122;SDS011;67376;44.802;10.332;2023-04-15T11:55:16;9.30;;;2.03;;
78122;SDS011;67376;44.802;10.332;2023-04-15T11:57:41;7.18;;;1.80;;
78122;SDS011;67376;44.802;10.332;2023-04-15T12:00:07;5.20;;;2.25;;
78122;SDS011;67376;44.802;10.332;2023-04-15T12:02:35;6.00;;;2.38;;
78122;SDS011;67376;44.802;10.332;2023-04-15T12:05:04;5.70;;;2.47;;
78122;SDS011;67376;44.802;10.332;2023-04-15T12:07:30;3.40;;;2.03;;
78122;SDS011;67376;44.802;10.332;2023-04-15T12:09:57;6.63;;;2.20;;
78122;SDS011;67376;44.802;10.332;2023-04-15T12:12:26;6.88;;;2.30;;
78122;SDS011;67376;44.802;10.332;2023-04-15T12:14:52;6.35;;;2.47;;
78122;SDS011;67376;44.802;10.332;2023-04-15T12:17:18;4.50;;;2.30;;
78122;SDS011;67376;44.802;10.332;2023-04-15T12:19:43;4.45;;;2.50;;
78122;SDS011;67376;44.802;10.332;2023-04-15T12:22:16;6.55;;;1.98;;
78122;SDS011;67376;44.802;10.332;2023-04-15T12:24:42;4.32;;;2.33;;
78122;SDS011;67376;44.802;10.332;2023-04-15T12:27:10;5.00;;;2.38;;
78122;SDS011;67376;44.802;10.332;2023-04-15T12:29:38;6.43;;;2.33;;
78122;SDS011;67376;44.802;10.332;2023-04-15T12:32:05;7.20;;;2.83;;
78122;SDS011;67376;44.802;10.332;2023-04-15T12:34:32;5.15;;;2.67;;
78122;SDS011;67376;44.802;10.332;2023-04-15T12:37:00;9.10;;;2.67;;
78122;SDS011;67376;44.802;10.332;2023-04-15T12:39:28;2.75;;;2.20;;
78122;SDS011;67376;44.802;10.332;2023-04-15T12:41:55;5.55;;;2.35;;
78122;SDS011;67376;44.802;10.332;2023-04-15T12:44:23;4.03;;;2.08;;
78122;SDS011;67376;44.802;10.332;2023-04-15T12:46:49;5.30;;;2.40;;
78122;SDS011;67376;44.802;10.332;2023-04-15T12:49:16;6.18;;;2.65;;
78122;SDS011;67376;44.802;10.332;2023-04-15T12:51:44;7.38;;;2.40;;
78122;SDS011;67376;44.802;10.332;2023-04-15T12:54:10;7.90;;;2.60;;
78122;SDS011;67376;44.802;10.332;2023-04-15T12:56:35;20.88;;;2.88;;
78122;SDS011;67376;44.802;10.332;2023-04-15T12:59:01;6.75;;;2.30;;
78122;SDS011;67376;44.802;10.332;2023-04-15T13:01:26;12.55;;;3.03;;
78122;SDS011;67376;44.802;10.332;2023-04-15T13:03:52;5.47;;;2.28;;
78122;SDS011;67376;44.802;10.332;2023-04-15T13:06:17;6.38;;;2.38;;
78122;SDS011;67376;44.802;10.332;2023-04-15T13:08:43;4.72;;;2.75;;
78122;SDS011;67376;44.802;10.332;2023-04-15T13:11:08;6.68;;;2.72;;
78122;SDS011;67376;44.802;10.332;2023-04-15T13:13:34;6.45;;;3.17;;
78122;SDS011;67376;44.802;10.332;2023-04-15T13:16:00;6.03;;;2.30;;
78122;SDS011;67376;44.802;10.332;2023-04-15T13:18:25;4.60;;;2.50;;
78122;SDS011;67376;44.802;10.332;2023-04-15T13:20:51;5.93;;;2.38;;
78122;SDS011;67376;44.802;10.332;2023-04-15T13:23:16;5.35;;;2.40;;
78122;SDS011;67376;44.802;10.332;2023-04-15T13:25:41;5.60;;;2.33;;
78122;SDS011;67376;44.802;10.332;2023-04-15T13:28:07;3.67;;;2.25;;
78122;SDS011;67376;44.802;10.332;2023-04-15T13:30:36;3.30;;;2.40;;
78122;SDS011;67376;44.802;10.332;2023-04-15T13:33:02;4.20;;;2.70;;
78122;SDS011;67376;44.802;10.332;2023-04-15T13:35:28;4.40;;;1.80;;
78122;SDS011;67376;44.802;10.332;2023-04-15T13:37:53;3.05;;;1.80;;
78122;SDS011;67376;44.802;10.332;2023-04-15T13:40:19;4.63;;;2.38;;
78122;SDS011;67376;44.802;10.332;2023-04-15T13:42:45;5.20;;;2.60;;
78122;SDS011;67376;44.802;10.332;2023-04-15T13:45:11;3.75;;;2.13;;
78122;SDS011;67376;44.802;10.332;2023-04-15T13:47:36;3.05;;;1.90;;
78122;SDS011;67376;44.802;10.332;2023-04-15T13:50:02;4.10;;;2.20;;
78122;SDS011;67376;44.802;10.332;2023-04-15T13:52:27;5.57;;;2.50;;
78122;SDS011;67376;44.802;10.332;2023-04-15T13:54:53;3.03;;;1.90;;
78122;SDS011;67376;44.802;10.332;2023-04-15T13:57:18;4.55;;;2.67;;
78122;SDS011;67376;44.802;10.332;2023-04-15T13:59:44;3.28;;;1.80;;
78122;SDS011;67376;44.802;10.332;2023-04-15T14:02:09;4.68;;;2.10;;
78122;SDS011;67376;44.802;10.332;2023-04-15T14:04:35;11.82;;;2.30;;
78122;SDS011;67376;44.802;10.332;2023-04-15T14:07:00;3.20;;;2.10;;
78122;SDS011;67376;44.802;10.332;2023-04-15T14:09:25;3.03;;;1.90;;
78122;SDS011;67376;44.802;10.332;2023-04-15T14:11:51;2.63;;;1.65;;
78122;SDS011;67376;44.802;10.332;2023-04-15T14:14:16;3.45;;;1.90;;
78122;SDS011;67376;44.802;10.332;2023-04-15T14:16:42;4.43;;;1.90;;
78122;SDS011;67376;44.802;10.332;2023-04-15T14:19:07;3.97;;;2.15;;
78122;SDS011;67376;44.802;10.332;2023-04-15T14:21:33;3.25;;;1.80;;
78122;SDS011;67376;44.802;10.332;2023-04-15T14:23:58;3.58;;;1.90;;
78122;SDS011;67376;44.802;10.332;2023-04-15T14:26:24;2.47;;;1.77;;
78122;SDS011;67376;44.802;10.332;2023-04-15T14:28:49;2.65;;;2.08;;
78122;SDS011;67376;44.802;10.332;2023-04-15T14:31:15;3.38;;;2.50;;
78122;SDS011;67376;44.802;10.332;2023-04-15T14:33:40;3.28;;;2.28;;
78122;SDS011;67376;44.802;10.332;2023-04-15T14:36:06;5.43;;;2.10;;
78122;SDS011;67376;44.802;10.332;2023-04-15T14:38:33;3.80;;;2.15;;
78122;SDS011;67376;44.802;10.332;2023-04-15T14:41:02;4.05;;;2.20;;
78122;SDS011;67376;44.802;10.332;2023-04-15T14:43:28;4.63;;;2.10;;
78122;SDS011;67376;44.802;10.332;2023-04-15T14:45:54;3.22;;;2.10;;
78122;SDS011;67376;44.802;10.332;2023-04-15T14:48:19;2.53;;;1.80;;
78122;SDS011;67376;44.802;10.332;2023-04-15T14:50:45;2.45;;;1.77;;
78122;SDS011;67376;44.802;10.332;2023-04-15T14:53:10;4.88;;;2.15;;
78122;SDS011;67376;44.802;10.332;2023-04-15T14:55:36;3.78;;;1.98;;
78122;SDS011;67376;44.802;10.332;2023-04-15T14:58:01;3.13;;;1.77;;
78122;SDS011;67376;44.802;10.332;2023-04-15T15:00:26;3.80;;;2.13;;
78122;SDS011;67376;44.802;10.332;2023-04-15T15:02:52;4.90;;;1.98;;